createdAt,value
2019-02-12T00:00:04.909Z,89
2019-02-12T00:00:31.015Z,88.71
2019-02-12T00:00:57.119Z,88.71
2019-02-12T00:01:23.222Z,88.62
2019-02-12T00:01:49.327Z,88.81
2019-02-12T00:02:15.424Z,89
2019-02-12T00:02:41.527Z,88.81
2019-02-12T00:03:07.633Z,88.81
2019-02-12T00:03:33.767Z,88.81
2019-02-12T00:03:59.898Z,89.19
2019-02-12T00:04:26.006Z,88.81
2019-02-12T00:04:52.119Z,88.81
2019-02-12T00:05:18.226Z,88.9
2019-02-12T00:05:44.329Z,89
2019-02-12T00:06:10.437Z,88.81
2019-02-12T00:06:36.545Z,89.38
2019-02-12T00:07:02.685Z,89.67
2019-02-12T00:07:28.824Z,89.19
2019-02-12T00:07:54.949Z,89.19
2019-02-12T00:08:21.061Z,89.47
2019-02-12T00:08:47.188Z,89.47
2019-02-12T00:09:13.306Z,89.19
2019-02-12T00:09:39.440Z,89.09
2019-02-12T00:10:05.624Z,89.09
2019-02-12T00:10:31.733Z,89.47
2019-02-12T00:10:57.878Z,89.38
2019-02-12T00:11:23.990Z,89.86
2019-02-12T00:11:50.147Z,89.67
2019-02-12T00:12:16.391Z,89.86
2019-02-12T00:12:42.490Z,89.47
2019-02-12T00:13:08.597Z,89.67
2019-02-12T00:13:34.701Z,89.86
2019-02-12T00:14:00.803Z,89.95
2019-02-12T00:14:26.941Z,89.95
2019-02-12T00:14:53.069Z,89.95
2019-02-12T00:15:19.271Z,89.86
2019-02-12T00:15:45.411Z,89.95
2019-02-12T00:16:11.522Z,89.95
2019-02-12T00:16:37.656Z,89.86
2019-02-12T00:17:03.787Z,90.05
2019-02-12T00:17:29.891Z,89.86
2019-02-12T00:17:56.019Z,90.14
2019-02-12T00:18:22.138Z,90.52
2019-02-12T00:18:48.272Z,90.14
2019-02-12T00:19:14.378Z,90.71
2019-02-12T00:19:40.504Z,90.33
2019-02-12T00:20:06.641Z,90.61
2019-02-12T00:20:32.759Z,90.71
2019-02-12T00:20:58.897Z,90.8
2019-02-12T00:21:26.027Z,90.42
2019-02-12T00:21:52.164Z,90.52
2019-02-12T00:22:18.279Z,90.33
2019-02-12T00:22:44.423Z,90.52
2019-02-12T00:23:10.589Z,90.52
2019-02-12T00:23:36.696Z,90.23
2019-02-12T00:24:02.802Z,90.47
2019-02-12T00:24:28.908Z,90.47
2019-02-12T00:24:55.008Z,90.19
2019-02-12T00:25:21.126Z,90.09
2019-02-12T00:25:47.283Z,90.52
2019-02-12T00:26:13.436Z,90.33
2019-02-12T00:26:39.534Z,90.23
2019-02-12T00:27:05.693Z,90.71
2019-02-12T00:27:31.993Z,90.23
2019-02-12T00:27:59.164Z,90.19
2019-02-12T00:28:25.265Z,90.33
2019-02-12T00:28:51.580Z,90.19
2019-02-12T00:29:17.692Z,90.38
2019-02-12T00:29:43.789Z,90.66
2019-02-12T00:30:09.948Z,90.19
2019-02-12T00:30:36.051Z,90.38
2019-02-12T00:31:02.159Z,90.19
2019-02-12T00:31:28.273Z,90.76
2019-02-12T00:31:54.380Z,90.85
2019-02-12T00:32:20.488Z,90.38
2019-02-12T00:32:46.674Z,90.95
2019-02-12T00:33:12.827Z,91.14
2019-02-12T00:33:38.942Z,90.95
2019-02-12T00:34:05.080Z,91.14
2019-02-12T00:34:31.186Z,91.42
2019-02-12T00:34:57.380Z,91.04
2019-02-12T00:35:23.485Z,91.24
2019-02-12T00:35:49.590Z,91.33
2019-02-12T00:36:15.693Z,91.33
2019-02-12T00:36:41.828Z,91.04
2019-02-12T00:37:07.966Z,91.04
2019-02-12T00:37:34.148Z,91.04
2019-02-12T00:38:00.319Z,90.95
2019-02-12T00:38:26.405Z,91.14
2019-02-12T00:38:52.545Z,90.85
2019-02-12T00:39:18.644Z,90.95
2019-02-12T00:39:44.750Z,91.14
2019-02-12T00:40:10.867Z,91.33
2019-02-12T00:40:36.974Z,91.71
2019-02-12T00:41:03.078Z,91.71
2019-02-12T00:41:29.269Z,91.24
2019-02-12T00:41:55.381Z,91.71
2019-02-12T00:42:21.509Z,91.89
2019-02-12T00:42:47.638Z,91.89
2019-02-12T00:43:13.737Z,91.61
2019-02-12T00:43:39.850Z,91.61
2019-02-12T00:44:05.975Z,91.42
2019-02-12T00:44:32.081Z,91.42
2019-02-12T00:44:58.190Z,91.42
2019-02-12T00:45:24.406Z,91.52
2019-02-12T00:45:50.583Z,91.71
2019-02-12T00:46:16.694Z,91.71
2019-02-12T00:46:42.889Z,91.42
2019-02-12T00:47:09.003Z,91.52
2019-02-12T00:47:35.102Z,91.61
2019-02-12T00:48:01.369Z,91.42
2019-02-12T00:48:27.418Z,91.33
2019-02-12T00:48:53.528Z,91.42
2019-02-12T00:49:19.685Z,91.42
2019-02-12T00:49:45.795Z,91.61
2019-02-12T00:50:11.891Z,91.52
2019-02-12T00:50:38.078Z,91.61
2019-02-12T00:51:04.181Z,91.61
2019-02-12T00:51:30.351Z,91.61
2019-02-12T00:51:56.464Z,91.52
2019-02-12T00:52:22.601Z,91.24
2019-02-12T00:52:48.710Z,91.61
2019-02-12T00:53:14.882Z,91.52
2019-02-12T00:53:40.986Z,91.42
2019-02-12T00:54:07.151Z,91.71
2019-02-12T00:54:34.272Z,91.24
2019-02-12T00:55:00.438Z,91.42
2019-02-12T00:55:26.569Z,91.52
2019-02-12T00:55:52.696Z,91.71
2019-02-12T00:56:18.801Z,91.61
2019-02-12T00:56:44.905Z,91.24
2019-02-12T00:57:11.015Z,91.42
2019-02-12T00:57:37.122Z,91.52
2019-02-12T00:58:03.237Z,91.61
2019-02-12T00:58:29.351Z,91.24
2019-02-12T00:58:55.488Z,91.71
2019-02-12T00:59:21.601Z,91.42
2019-02-12T00:59:47.709Z,91.52
2019-02-12T01:00:13.865Z,92.37
2019-02-12T01:00:39.966Z,91.71
2019-02-12T01:01:06.082Z,91.61
2019-02-12T01:01:32.206Z,91.61
2019-02-12T01:01:58.342Z,91.8
2019-02-12T01:02:24.445Z,91.42
2019-02-12T01:02:50.553Z,91.33
2019-02-12T01:03:16.683Z,91.71
2019-02-12T01:03:42.792Z,91.52
2019-02-12T01:04:08.918Z,91.61
2019-02-12T01:04:35.060Z,91.99
2019-02-12T01:05:01.160Z,91.61
2019-02-12T01:05:27.297Z,91.61
2019-02-12T01:05:53.399Z,91.52
2019-02-12T01:06:19.531Z,91.42
2019-02-12T01:06:45.667Z,91.8
2019-02-12T01:07:11.770Z,91.61
2019-02-12T01:07:37.908Z,91.61
2019-02-12T01:08:04.011Z,91.71
2019-02-12T01:08:30.114Z,91.33
2019-02-12T01:08:56.220Z,91.52
2019-02-12T01:09:22.334Z,91.61
2019-02-12T01:09:48.433Z,91.42
2019-02-12T01:10:14.538Z,91.89
2019-02-12T01:10:40.642Z,91.52
2019-02-12T01:11:06.785Z,91.71
2019-02-12T01:11:32.921Z,91.24
2019-02-12T01:11:59.085Z,91.52
2019-02-12T01:12:25.187Z,91.61
2019-02-12T01:12:51.299Z,91.42
2019-02-12T01:13:17.398Z,91.33
2019-02-12T01:13:43.534Z,91.33
2019-02-12T01:14:09.637Z,91.61
2019-02-12T01:14:35.750Z,91.33
2019-02-12T01:15:01.855Z,91.42
2019-02-12T01:15:27.997Z,91.52
2019-02-12T01:15:54.125Z,91.42
2019-02-12T01:16:20.226Z,91.42
2019-02-12T01:16:46.334Z,91.33
2019-02-12T01:17:12.471Z,91.71
2019-02-12T01:17:38.602Z,91.42
2019-02-12T01:18:04.712Z,91.52
2019-02-12T01:18:30.812Z,91.8
2019-02-12T01:18:56.915Z,91.61
2019-02-12T01:19:23.016Z,91.42
2019-02-12T01:19:49.126Z,91.89
2019-02-12T01:20:15.232Z,91.52
2019-02-12T01:20:41.342Z,91.52
2019-02-12T01:21:07.449Z,91.52
2019-02-12T01:21:35.561Z,91.8
2019-02-12T01:22:01.667Z,91.89
2019-02-12T01:22:27.797Z,91.14
2019-02-12T01:22:53.903Z,91.42
2019-02-12T01:23:20.008Z,91.14
2019-02-12T01:23:46.144Z,90.95
2019-02-12T01:24:12.243Z,91.24
2019-02-12T01:24:38.358Z,90.66
2019-02-12T01:25:04.514Z,90.66
2019-02-12T01:25:30.645Z,90.66
2019-02-12T01:25:56.777Z,91.14
2019-02-12T01:26:22.913Z,91.04
2019-02-12T01:26:49.018Z,90.76
2019-02-12T01:27:15.124Z,90.76
2019-02-12T01:27:41.230Z,90.85
2019-02-12T01:28:07.358Z,90.85
2019-02-12T01:28:33.468Z,90.85
2019-02-12T01:28:59.599Z,90.47
2019-02-12T01:29:25.738Z,90.85
2019-02-12T01:29:51.838Z,90.47
2019-02-12T01:30:18.005Z,90.47
2019-02-12T01:30:44.108Z,90.76
2019-02-12T01:31:10.218Z,90.85
2019-02-12T01:31:36.346Z,90.76
2019-02-12T01:32:02.452Z,90.47
2019-02-12T01:32:28.552Z,90.76
2019-02-12T01:32:54.721Z,90.66
2019-02-12T01:33:20.854Z,90.85
2019-02-12T01:33:46.956Z,90.76
2019-02-12T01:34:13.117Z,90.47
2019-02-12T01:34:39.221Z,90.76
2019-02-12T01:35:05.354Z,90.85
2019-02-12T01:35:31.523Z,90.76
2019-02-12T01:35:57.622Z,90.66
2019-02-12T01:36:23.736Z,90.76
2019-02-12T01:36:49.873Z,90.85
2019-02-12T01:37:15.972Z,91.14
2019-02-12T01:37:42.105Z,90.76
2019-02-12T01:38:08.246Z,90.66
2019-02-12T01:38:34.402Z,90.57
2019-02-12T01:39:00.513Z,90.76
2019-02-12T01:39:26.616Z,90.47
2019-02-12T01:39:52.717Z,90.85
2019-02-12T01:40:18.850Z,90.76
2019-02-12T01:40:45.834Z,90.95
2019-02-12T01:41:11.075Z,90.85
2019-02-12T01:41:37.215Z,90.95
2019-02-12T01:42:03.337Z,91.14
2019-02-12T01:42:29.445Z,91.24
2019-02-12T01:42:55.588Z,91.04
2019-02-12T01:43:21.720Z,90.76
2019-02-12T01:43:47.856Z,91.14
2019-02-12T01:44:13.952Z,91.33
2019-02-12T01:44:40.090Z,91.14
2019-02-12T01:45:06.192Z,90.85
2019-02-12T01:45:32.304Z,91.14
2019-02-12T01:45:58.433Z,91.14
2019-02-12T01:46:24.536Z,90.95
2019-02-12T01:46:50.647Z,90.66
2019-02-12T01:47:16.754Z,91.24
2019-02-12T01:47:42.863Z,91.24
2019-02-12T01:48:08.962Z,91.04
2019-02-12T01:48:35.065Z,90.76
2019-02-12T01:49:01.226Z,90.76
2019-02-12T01:49:27.337Z,91.33
2019-02-12T01:49:53.476Z,91.33
2019-02-12T01:50:19.614Z,90.76
2019-02-12T01:50:45.742Z,90.95
2019-02-12T01:51:11.857Z,90.76
2019-02-12T01:51:39.001Z,91.14
2019-02-12T01:52:05.143Z,90.95
2019-02-12T01:52:31.239Z,90.95
2019-02-12T01:52:57.371Z,91.14
2019-02-12T01:53:23.479Z,90.95
2019-02-12T01:53:49.583Z,90.85
2019-02-12T01:54:15.682Z,91.24
2019-02-12T01:54:41.787Z,91.52
2019-02-12T01:55:07.896Z,91.33
2019-02-12T01:55:34.021Z,91.42
2019-02-12T01:56:00.133Z,91.61
2019-02-12T01:56:26.234Z,91.61
2019-02-12T01:56:52.344Z,91.52
2019-02-12T01:57:18.460Z,91.8
2019-02-12T01:57:44.588Z,91.24
2019-02-12T01:58:10.717Z,91.33
2019-02-12T01:58:36.828Z,91.33
2019-02-12T01:59:02.932Z,91.33
2019-02-12T01:59:29.074Z,91.33
2019-02-12T01:59:55.241Z,91.04
2019-02-12T02:00:21.340Z,91.04
2019-02-12T02:00:47.444Z,91.33
2019-02-12T02:01:13.551Z,91.14
2019-02-12T02:01:39.655Z,91.33
2019-02-12T02:02:05.769Z,91.8
2019-02-12T02:02:31.905Z,91.89
2019-02-12T02:02:58.005Z,91.61
2019-02-12T02:03:24.144Z,91.71
2019-02-12T02:03:50.318Z,91.89
2019-02-12T02:04:16.446Z,91.24
2019-02-12T02:04:42.598Z,91.33
2019-02-12T02:05:08.702Z,91.33
2019-02-12T02:05:34.807Z,90.85
2019-02-12T02:06:00.940Z,91.33
2019-02-12T02:06:27.048Z,90.95
2019-02-12T02:06:53.154Z,91.33
2019-02-12T02:07:19.291Z,91.24
2019-02-12T02:07:45.399Z,91.61
2019-02-12T02:08:11.544Z,91.24
2019-02-12T02:08:37.650Z,91.42
2019-02-12T02:09:03.758Z,91.42
2019-02-12T02:09:29.914Z,91.24
2019-02-12T02:09:56.016Z,91.14
2019-02-12T02:10:22.150Z,90.85
2019-02-12T02:10:49.249Z,91.04
2019-02-12T02:11:15.359Z,90.95
2019-02-12T02:11:41.464Z,90.85
2019-02-12T02:12:07.569Z,91.04
2019-02-12T02:12:33.670Z,90.19
2019-02-12T02:12:59.802Z,90.28
2019-02-12T02:13:25.911Z,90.47
2019-02-12T02:13:52.020Z,90.19
2019-02-12T02:14:18.129Z,90.66
2019-02-12T02:14:44.260Z,90.47
2019-02-12T02:15:10.394Z,90.85
2019-02-12T02:15:36.505Z,90.47
2019-02-12T02:16:02.637Z,90.66
2019-02-12T02:16:28.743Z,90.38
2019-02-12T02:16:54.876Z,90.19
2019-02-12T02:17:20.978Z,89.81
2019-02-12T02:17:47.088Z,90.19
2019-02-12T02:18:13.217Z,90.09
2019-02-12T02:18:39.325Z,90
2019-02-12T02:19:05.455Z,89.81
2019-02-12T02:19:31.589Z,90
2019-02-12T02:19:57.718Z,89.62
2019-02-12T02:20:23.853Z,89.9
2019-02-12T02:20:49.961Z,89.33
2019-02-12T02:21:16.093Z,89.43
2019-02-12T02:21:44.183Z,89.53
2019-02-12T02:22:09.349Z,89.62
2019-02-12T02:22:35.476Z,89.53
2019-02-12T02:23:01.583Z,89.53
2019-02-12T02:23:27.692Z,89.53
2019-02-12T02:23:53.795Z,89.43
2019-02-12T02:24:19.905Z,89.24
2019-02-12T02:24:46.011Z,89.72
2019-02-12T02:25:12.109Z,89.05
2019-02-12T02:25:38.223Z,89.24
2019-02-12T02:26:04.333Z,89.14
2019-02-12T02:26:30.438Z,89.24
2019-02-12T02:26:56.544Z,89.53
2019-02-12T02:27:22.645Z,89.43
2019-02-12T02:27:48.757Z,89.33
2019-02-12T02:28:14.858Z,88.95
2019-02-12T02:28:40.988Z,88.76
2019-02-12T02:29:07.122Z,89.14
2019-02-12T02:29:33.222Z,88.67
2019-02-12T02:29:59.328Z,89.05
2019-02-12T02:30:25.436Z,88.86
2019-02-12T02:30:51.539Z,89.43
2019-02-12T02:31:17.670Z,89.53
2019-02-12T02:31:43.804Z,89.24
2019-02-12T02:32:09.910Z,89.24
2019-02-12T02:32:36.062Z,89.62
2019-02-12T02:33:02.172Z,90.28
2019-02-12T02:33:28.340Z,90.09
2019-02-12T02:33:54.442Z,90.28
2019-02-12T02:34:20.547Z,90.47
2019-02-12T02:34:46.677Z,90.47
2019-02-12T02:35:12.836Z,90.38
2019-02-12T02:35:38.971Z,90.28
2019-02-12T02:36:05.074Z,90.47
2019-02-12T02:36:31.240Z,90.28
2019-02-12T02:36:57.372Z,90.85
2019-02-12T02:37:23.500Z,90.57
2019-02-12T02:37:49.601Z,90.85
2019-02-12T02:38:15.726Z,91.04
2019-02-12T02:38:41.863Z,90.47
2019-02-12T02:39:07.969Z,90.57
2019-02-12T02:39:34.101Z,90.66
2019-02-12T02:40:00.575Z,90.57
2019-02-12T02:40:26.414Z,90.76
2019-02-12T02:40:52.514Z,90.38
2019-02-12T02:41:18.660Z,90.47
2019-02-12T02:41:44.813Z,90.85
2019-02-12T02:42:10.926Z,90.85
2019-02-12T02:42:37.054Z,91.14
2019-02-12T02:43:03.186Z,90.85
2019-02-12T02:43:29.299Z,90.66
2019-02-12T02:43:55.404Z,90.66
2019-02-12T02:44:21.510Z,90.76
2019-02-12T02:44:47.614Z,90.66
2019-02-12T02:45:13.743Z,90.95
2019-02-12T02:45:39.904Z,90.76
2019-02-12T02:46:06.009Z,90.47
2019-02-12T02:46:32.108Z,90.47
2019-02-12T02:46:58.249Z,91.24
2019-02-12T02:47:24.344Z,90.47
2019-02-12T02:47:50.449Z,90.85
2019-02-12T02:48:16.552Z,90.38
2019-02-12T02:48:42.663Z,90.28
2019-02-12T02:49:08.786Z,90.47
2019-02-12T02:49:34.899Z,90.47
2019-02-12T02:50:03.305Z,90.19
2019-02-12T02:50:28.120Z,90.66
2019-02-12T02:50:54.247Z,90.66
2019-02-12T02:51:20.346Z,90.19
2019-02-12T02:51:53.631Z,90.66
2019-02-12T02:52:14.624Z,90.28
2019-02-12T02:52:40.726Z,90.47
2019-02-12T02:53:06.831Z,90.28
2019-02-12T02:53:32.996Z,90.47
2019-02-12T02:53:59.127Z,90.19
2019-02-12T02:54:25.232Z,90.47
2019-02-12T02:54:51.336Z,90.38
2019-02-12T02:55:17.471Z,90.19
2019-02-12T02:55:43.629Z,90.57
2019-02-12T02:56:09.767Z,90.28
2019-02-12T02:56:35.873Z,90.85
2019-02-12T02:57:02.005Z,90.28
2019-02-12T02:57:28.117Z,90.76
2019-02-12T02:57:54.218Z,90.66
2019-02-12T02:58:20.348Z,90.95
2019-02-12T02:58:46.487Z,90.95
2019-02-12T02:59:12.592Z,90.95
2019-02-12T02:59:38.723Z,91.14
2019-02-12T03:00:04.828Z,91.14
2019-02-12T03:00:30.963Z,91.14
2019-02-12T03:00:57.043Z,90.76
2019-02-12T03:01:23.175Z,90.85
2019-02-12T03:01:49.281Z,91.33
2019-02-12T03:02:15.378Z,91.33
2019-02-12T03:02:41.489Z,91.24
2019-02-12T03:03:07.590Z,91.42
2019-02-12T03:03:33.733Z,91.52
2019-02-12T03:03:59.867Z,91.14
2019-02-12T03:04:25.972Z,91.14
2019-02-12T03:04:52.097Z,91.33
2019-02-12T03:05:18.233Z,91.24
2019-02-12T03:05:44.325Z,91.14
2019-02-12T03:06:10.467Z,91.33
2019-02-12T03:06:36.567Z,90.85
2019-02-12T03:07:02.697Z,91.04
2019-02-12T03:07:28.828Z,90.85
2019-02-12T03:07:54.932Z,91.24
2019-02-12T03:08:21.070Z,91.24
2019-02-12T03:08:47.200Z,91.04
2019-02-12T03:09:13.362Z,91.14
2019-02-12T03:09:39.464Z,91.42
2019-02-12T03:10:05.576Z,91.52
2019-02-12T03:10:31.729Z,91.14
2019-02-12T03:10:57.879Z,91.14
2019-02-12T03:11:23.989Z,91.33
2019-02-12T03:11:50.117Z,90.85
2019-02-12T03:12:16.252Z,90.85
2019-02-12T03:12:42.415Z,91.42
2019-02-12T03:13:08.518Z,90.95
2019-02-12T03:13:34.627Z,91.14
2019-02-12T03:14:00.787Z,91.14
2019-02-12T03:14:26.897Z,91.14
2019-02-12T03:14:53.007Z,91.52
2019-02-12T03:15:19.114Z,91.52
2019-02-12T03:15:45.216Z,91.33
2019-02-12T03:16:11.349Z,91.33
2019-02-12T03:16:37.483Z,90.95
2019-02-12T03:17:03.587Z,91.33
2019-02-12T03:17:29.698Z,90.95
2019-02-12T03:17:55.832Z,91.52
2019-02-12T03:18:22.000Z,91.33
2019-02-12T03:18:48.126Z,91.14
2019-02-12T03:19:14.262Z,90.85
2019-02-12T03:19:40.393Z,91.14
2019-02-12T03:20:06.495Z,91.42
2019-02-12T03:20:32.597Z,91.24
2019-02-12T03:20:58.710Z,91.61
2019-02-12T03:21:24.810Z,91.61
2019-02-12T03:21:50.919Z,91.8
2019-02-12T03:22:18.069Z,91.33
2019-02-12T03:22:44.176Z,91.71
2019-02-12T03:23:10.304Z,91.61
2019-02-12T03:23:36.407Z,91.61
2019-02-12T03:24:02.625Z,91.61
2019-02-12T03:24:28.708Z,91.42
2019-02-12T03:24:54.814Z,91.52
2019-02-12T03:25:20.944Z,91.52
2019-02-12T03:25:47.102Z,91.42
2019-02-12T03:26:13.256Z,91.24
2019-02-12T03:26:39.368Z,91.99
2019-02-12T03:27:05.477Z,92.09
2019-02-12T03:27:31.670Z,92.18
2019-02-12T03:27:57.731Z,91.89
2019-02-12T03:28:23.907Z,92.18
2019-02-12T03:28:50.038Z,91.8
2019-02-12T03:29:16.203Z,91.99
2019-02-12T03:29:42.320Z,91.89
2019-02-12T03:30:08.417Z,91.89
2019-02-12T03:30:34.585Z,91.89
2019-02-12T03:31:00.706Z,92.28
2019-02-12T03:31:26.804Z,92.47
2019-02-12T03:31:52.960Z,91.89
2019-02-12T03:32:19.149Z,92.28
2019-02-12T03:32:45.310Z,91.99
2019-02-12T03:33:11.489Z,91.8
2019-02-12T03:33:37.706Z,91.61
2019-02-12T03:34:03.805Z,91.61
2019-02-12T03:34:29.941Z,91.61
2019-02-12T03:34:56.079Z,91.8
2019-02-12T03:35:22.181Z,91.24
2019-02-12T03:35:48.312Z,91.33
2019-02-12T03:36:14.475Z,91.04
2019-02-12T03:36:40.573Z,90.85
2019-02-12T03:37:06.682Z,91.61
2019-02-12T03:37:32.833Z,91.8
2019-02-12T03:37:58.992Z,91.52
2019-02-12T03:38:25.091Z,91.71
2019-02-12T03:38:51.197Z,91.61
2019-02-12T03:39:17.365Z,91.61
2019-02-12T03:39:43.470Z,91.61
2019-02-12T03:40:09.567Z,91.56
2019-02-12T03:40:35.706Z,91.38
2019-02-12T03:41:01.837Z,91.47
2019-02-12T03:41:27.945Z,91.85
2019-02-12T03:41:54.081Z,91.66
2019-02-12T03:42:20.228Z,92.23
2019-02-12T03:42:46.401Z,92.14
2019-02-12T03:43:12.532Z,91.85
2019-02-12T03:43:38.634Z,92.14
2019-02-12T03:44:04.823Z,91.94
2019-02-12T03:44:30.954Z,91.85
2019-02-12T03:44:57.060Z,92.14
2019-02-12T03:45:23.191Z,92.14
2019-02-12T03:45:49.326Z,92.14
2019-02-12T03:46:15.461Z,92.14
2019-02-12T03:46:41.561Z,92.33
2019-02-12T03:47:07.664Z,92.8
2019-02-12T03:47:33.795Z,92.71
2019-02-12T03:47:59.931Z,92.71
2019-02-12T03:48:26.484Z,92.33
2019-02-12T03:48:52.590Z,92.23
2019-02-12T03:49:18.719Z,92.52
2019-02-12T03:49:44.852Z,93.08
2019-02-12T03:50:10.951Z,92.14
2019-02-12T03:50:37.111Z,92.9
2019-02-12T03:51:03.245Z,92.23
2019-02-12T03:51:29.407Z,92.23
2019-02-12T03:51:55.514Z,92.04
2019-02-12T03:52:22.638Z,92.14
2019-02-12T03:52:48.791Z,92.14
2019-02-12T03:53:14.890Z,92.14
2019-02-12T03:53:41.003Z,92.23
2019-02-12T03:54:07.135Z,92.14
2019-02-12T03:54:33.294Z,92.14
2019-02-12T03:54:59.399Z,92.33
2019-02-12T03:55:25.498Z,92.23
2019-02-12T03:55:51.635Z,92.04
2019-02-12T03:56:17.732Z,92.52
2019-02-12T03:56:43.869Z,92.33
2019-02-12T03:57:10.003Z,92.04
2019-02-12T03:57:36.105Z,92.71
2019-02-12T03:58:02.240Z,92.04
2019-02-12T03:58:28.373Z,92.23
2019-02-12T03:58:54.494Z,92.52
2019-02-12T03:59:20.626Z,92.9
2019-02-12T03:59:46.735Z,92.33
2019-02-12T04:00:12.876Z,92.14
2019-02-12T04:00:39.059Z,92.33
2019-02-12T04:01:05.187Z,92.42
2019-02-12T04:01:31.297Z,92.14
2019-02-12T04:01:57.405Z,92.04
2019-02-12T04:02:23.510Z,92.14
2019-02-12T04:02:49.627Z,92.14
2019-02-12T04:03:15.787Z,92.14
2019-02-12T04:03:41.920Z,92.23
2019-02-12T04:04:08.041Z,92.14
2019-02-12T04:04:34.147Z,92.14
2019-02-12T04:05:00.486Z,92.42
2019-02-12T04:05:26.551Z,92.23
2019-02-12T04:05:52.646Z,92.33
2019-02-12T04:06:18.749Z,91.85
2019-02-12T04:06:44.880Z,92.23
2019-02-12T04:07:10.989Z,92.14
2019-02-12T04:07:37.125Z,92.42
2019-02-12T04:08:03.237Z,92.33
2019-02-12T04:08:29.340Z,92.14
2019-02-12T04:08:55.444Z,91.75
2019-02-12T04:09:21.576Z,92.33
2019-02-12T04:09:47.676Z,92.23
2019-02-12T04:10:13.818Z,92.52
2019-02-12T04:10:39.926Z,92.23
2019-02-12T04:11:06.053Z,92.04
2019-02-12T04:11:32.165Z,92.04
2019-02-12T04:11:58.273Z,92.23
2019-02-12T04:12:24.412Z,92.52
2019-02-12T04:12:50.519Z,92.04
2019-02-12T04:13:16.628Z,92.52
2019-02-12T04:13:42.735Z,92.71
2019-02-12T04:14:08.919Z,92.33
2019-02-12T04:14:35.029Z,92.14
2019-02-12T04:15:01.135Z,92.14
2019-02-12T04:15:27.230Z,92.42
2019-02-12T04:15:53.336Z,92.04
2019-02-12T04:16:19.463Z,92.14
2019-02-12T04:16:45.568Z,92.04
2019-02-12T04:17:11.672Z,92.23
2019-02-12T04:17:37.775Z,91.94
2019-02-12T04:18:03.885Z,92.23
2019-02-12T04:18:29.985Z,92.14
2019-02-12T04:18:56.114Z,92.23
2019-02-12T04:19:22.216Z,92.04
2019-02-12T04:19:48.322Z,92.33
2019-02-12T04:20:14.430Z,92.23
2019-02-12T04:20:40.591Z,92.14
2019-02-12T04:21:06.739Z,92.8
2019-02-12T04:21:32.872Z,92.99
2019-02-12T04:21:59.049Z,92.9
2019-02-12T04:22:27.169Z,92.9
2019-02-12T04:22:53.276Z,92.52
2019-02-12T04:23:19.432Z,92.9
2019-02-12T04:23:45.487Z,92.71
2019-02-12T04:24:11.614Z,93.08
2019-02-12T04:24:37.723Z,92.71
2019-02-12T04:25:03.821Z,93.18
2019-02-12T04:25:29.963Z,92.61
2019-02-12T04:25:56.070Z,92.9
2019-02-12T04:26:22.172Z,92.14
2019-02-12T04:26:48.277Z,92.61
2019-02-12T04:27:14.393Z,92.23
2019-02-12T04:27:40.492Z,92.23
2019-02-12T04:28:06.605Z,92.52
2019-02-12T04:28:32.706Z,92.42
2019-02-12T04:28:58.839Z,92.33
2019-02-12T04:29:24.938Z,92.52
2019-02-12T04:29:51.044Z,92.23
2019-02-12T04:30:17.242Z,92.23
2019-02-12T04:30:43.392Z,92.71
2019-02-12T04:31:09.504Z,92.52
2019-02-12T04:31:35.616Z,92.71
2019-02-12T04:32:01.721Z,92.52
2019-02-12T04:32:27.817Z,92.52
2019-02-12T04:32:53.952Z,92.23
2019-02-12T04:33:20.083Z,92.14
2019-02-12T04:33:46.182Z,92.14
2019-02-12T04:34:12.331Z,92.23
2019-02-12T04:34:38.460Z,92.23
2019-02-12T04:35:04.628Z,92.04
2019-02-12T04:35:30.766Z,92.14
2019-02-12T04:35:56.869Z,92.04
2019-02-12T04:36:23.006Z,92.71
2019-02-12T04:36:49.140Z,92.23
2019-02-12T04:37:15.272Z,92.33
2019-02-12T04:37:41.404Z,92.71
2019-02-12T04:38:07.542Z,92.14
2019-02-12T04:38:33.643Z,92.99
2019-02-12T04:38:59.748Z,93.08
2019-02-12T04:39:25.913Z,92.99
2019-02-12T04:39:52.022Z,92.99
2019-02-12T04:40:18.126Z,92.9
2019-02-12T04:40:44.227Z,92.99
2019-02-12T04:41:10.332Z,92.8
2019-02-12T04:41:36.442Z,92.52
2019-02-12T04:42:02.537Z,92.8
2019-02-12T04:42:28.655Z,92.71
2019-02-12T04:42:54.754Z,92.8
2019-02-12T04:43:20.858Z,92.71
2019-02-12T04:43:46.971Z,92.8
2019-02-12T04:44:13.079Z,92.8
2019-02-12T04:44:39.171Z,92.71
2019-02-12T04:45:05.457Z,92.99
2019-02-12T04:45:31.560Z,93.18
2019-02-12T04:45:57.665Z,92.9
2019-02-12T04:46:23.791Z,92.9
2019-02-12T04:46:49.927Z,93.08
2019-02-12T04:47:16.091Z,92.8
2019-02-12T04:47:42.140Z,92.71
2019-02-12T04:48:08.272Z,92.9
2019-02-12T04:48:34.400Z,92.23
2019-02-12T04:49:00.526Z,92.42
2019-02-12T04:49:26.634Z,93.27
2019-02-12T04:49:52.765Z,92.9
2019-02-12T04:50:18.893Z,92.99
2019-02-12T04:50:45.028Z,92.71
2019-02-12T04:51:11.164Z,93.46
2019-02-12T04:51:37.295Z,93.18
2019-02-12T04:52:03.464Z,93.65
2019-02-12T04:52:32.042Z,93.65
2019-02-12T04:52:57.711Z,93.75
2019-02-12T04:53:23.811Z,93.94
2019-02-12T04:53:49.924Z,93.94
2019-02-12T04:54:16.029Z,94.32
2019-02-12T04:54:42.130Z,94.42
2019-02-12T04:55:08.235Z,94.03
2019-02-12T04:55:34.365Z,93.94
2019-02-12T04:56:00.470Z,93.84
2019-02-12T04:56:26.600Z,93.84
2019-02-12T04:56:52.706Z,94.23
2019-02-12T04:57:18.823Z,94.23
2019-02-12T04:57:44.933Z,94.23
2019-02-12T04:58:11.073Z,93.94
2019-02-12T04:58:37.184Z,93.84
2019-02-12T04:59:03.312Z,94.42
2019-02-12T04:59:29.437Z,94.6
2019-02-12T04:59:55.544Z,94.6
2019-02-12T05:00:21.751Z,94.23
2019-02-12T05:00:47.905Z,94.13
2019-02-12T05:01:15.007Z,94.32
2019-02-12T05:01:41.127Z,94.13
2019-02-12T05:02:07.255Z,94.79
2019-02-12T05:02:33.362Z,94.74
2019-02-12T05:02:59.496Z,94.37
2019-02-12T05:03:25.593Z,94.7
2019-02-12T05:03:51.757Z,94.79
2019-02-12T05:04:17.854Z,94.51
2019-02-12T05:04:43.990Z,94.7
2019-02-12T05:05:10.101Z,94.7
2019-02-12T05:05:36.262Z,94.56
2019-02-12T05:06:02.386Z,94.7
2019-02-12T05:06:28.521Z,94.65
2019-02-12T05:06:54.624Z,94.65
2019-02-12T05:07:20.786Z,94.7
2019-02-12T05:07:46.895Z,94.46
2019-02-12T05:08:12.996Z,94.7
2019-02-12T05:08:39.104Z,94.51
2019-02-12T05:09:05.245Z,94.74
2019-02-12T05:09:31.368Z,94.6
2019-02-12T05:09:57.536Z,94.6
2019-02-12T05:10:23.643Z,94.74
2019-02-12T05:10:49.808Z,94.65
2019-02-12T05:11:15.909Z,94.37
2019-02-12T05:11:42.070Z,95.12
2019-02-12T05:12:08.205Z,95.12
2019-02-12T05:12:34.312Z,94.84
2019-02-12T05:13:00.447Z,95.22
2019-02-12T05:13:26.544Z,95.46
2019-02-12T05:13:52.681Z,95.12
2019-02-12T05:14:18.846Z,95.55
2019-02-12T05:14:44.976Z,95.03
2019-02-12T05:15:11.083Z,95.17
2019-02-12T05:15:37.216Z,95.17
2019-02-12T05:16:03.317Z,95.12
2019-02-12T05:16:29.426Z,94.98
2019-02-12T05:16:55.523Z,95.03
2019-02-12T05:17:21.662Z,95.31
2019-02-12T05:17:47.771Z,95.03
2019-02-12T05:18:13.872Z,94.84
2019-02-12T05:18:40.025Z,94.93
2019-02-12T05:19:06.404Z,95.27
2019-02-12T05:19:32.513Z,95.5
2019-02-12T05:19:58.613Z,94.93
2019-02-12T05:20:24.726Z,95.41
2019-02-12T05:20:50.825Z,95.31
2019-02-12T05:21:16.928Z,95.31
2019-02-12T05:21:43.068Z,95.03
2019-02-12T05:22:09.170Z,95.03
2019-02-12T05:22:43.078Z,95.31
2019-02-12T05:23:02.430Z,95.12
2019-02-12T05:23:28.531Z,95.31
2019-02-12T05:23:54.641Z,94.84
2019-02-12T05:24:20.778Z,95.6
2019-02-12T05:24:46.926Z,95.41
2019-02-12T05:25:13.058Z,95.03
2019-02-12T05:25:39.167Z,95.12
2019-02-12T05:26:05.263Z,95.6
2019-02-12T05:26:31.375Z,95.22
2019-02-12T05:26:57.475Z,95.41
2019-02-12T05:27:23.606Z,94.93
2019-02-12T05:27:49.726Z,95.03
2019-02-12T05:28:15.858Z,95.03
2019-02-12T05:28:41.995Z,94.93
2019-02-12T05:29:08.099Z,94.84
2019-02-12T05:29:34.253Z,94.93
2019-02-12T05:30:00.389Z,94.93
2019-02-12T05:30:26.569Z,94.93
2019-02-12T05:30:52.671Z,95.41
2019-02-12T05:31:18.814Z,95.6
2019-02-12T05:31:44.916Z,95.22
2019-02-12T05:32:11.078Z,95.41
2019-02-12T05:32:37.203Z,95.31
2019-02-12T05:33:03.342Z,95.22
2019-02-12T05:33:29.465Z,95.31
2019-02-12T05:33:55.603Z,95.22
2019-02-12T05:34:21.741Z,95.41
2019-02-12T05:34:47.914Z,95.03
2019-02-12T05:35:14.014Z,95.22
2019-02-12T05:35:40.118Z,95.03
2019-02-12T05:36:06.225Z,95.12
2019-02-12T05:36:32.356Z,95.41
2019-02-12T05:36:58.460Z,95.03
2019-02-12T05:37:24.565Z,95.22